createdAt,value
2018-11-05T00:04:23.465Z,11.70
2018-11-05T00:09:26.630Z,11.03
2018-11-05T00:14:30.410Z,10.67
2018-11-05T00:19:33.666Z,10.87
2018-11-05T00:24:37.339Z,10.17
2018-11-05T00:29:40.526Z,10.83
2018-11-05T00:34:43.691Z,11.23
2018-11-05T00:39:47.435Z,10.50
2018-11-05T00:44:50.573Z,10.60
2018-11-05T00:49:53.715Z,11.20
2018-11-05T00:54:56.838Z,11.07
2018-11-05T01:00:00.910Z,10.30
2018-11-05T01:05:04.350Z,11.07
2018-11-05T01:10:08.445Z,11.23
2018-11-05T01:15:13.609Z,10.50
2018-11-05T01:20:16.766Z,10.37
2018-11-05T01:25:19.878Z,10.60
2018-11-05T01:30:23.015Z,10.50
2018-11-05T01:35:26.674Z,10.37
2018-11-05T01:40:29.838Z,11.50
2018-11-05T01:45:32.991Z,10.70
2018-11-05T01:50:36.143Z,10.20
2018-11-05T01:55:39.422Z,10.27
2018-11-05T02:00:43.002Z,10.57
2018-11-05T02:05:46.139Z,11.40
2018-11-05T02:10:49.971Z,11.17
2018-11-05T02:15:53.111Z,10.60
2018-11-05T02:20:56.286Z,10.80
2018-11-05T02:25:59.442Z,11.43
2018-11-05T02:31:02.911Z,10.20
2018-11-05T02:36:07.387Z,9.97
2018-11-05T02:41:10.510Z,10.63
2018-11-05T02:46:14.025Z,10.20
2018-11-05T02:51:17.143Z,10.93
2018-11-05T02:56:20.262Z,9.83
2018-11-05T03:01:23.462Z,10.40
2018-11-05T03:06:35.763Z,10.40
2018-11-05T03:11:39.204Z,10.63
2018-11-05T03:16:42.338Z,11.00
2018-11-05T03:21:45.471Z,11.53
2018-11-05T03:26:52.266Z,10.93
2018-11-05T03:31:56.314Z,10.30
2018-11-05T03:36:59.679Z,10.60
2018-11-05T03:42:03.489Z,12.07
2018-11-05T03:47:06.881Z,10.80
2018-11-05T03:52:10.549Z,11.70
2018-11-05T03:57:16.226Z,12.47
2018-11-05T04:02:19.390Z,11.63
2018-11-05T04:07:22.914Z,11.57
2018-11-05T04:12:26.082Z,12.97
2018-11-05T04:17:29.813Z,12.30
2018-11-05T04:22:34.394Z,12.23
2018-11-05T04:27:38.415Z,12.23
2018-11-05T04:32:44.196Z,13.00
2018-11-05T04:37:47.394Z,13.87
2018-11-05T04:42:53.416Z,12.90
2018-11-05T04:47:57.614Z,16.13
2018-11-05T04:53:00.782Z,15.47
2018-11-05T04:58:03.958Z,17.07
2018-11-05T05:03:08.568Z,15.07
2018-11-05T05:08:11.800Z,14.33
2018-11-05T05:13:14.982Z,12.93
2018-11-05T05:18:18.178Z,12.20
2018-11-05T05:23:21.591Z,13.43
2018-11-05T05:28:25.384Z,12.90
2018-11-05T05:33:28.626Z,12.93
2018-11-05T05:38:31.761Z,12.37
2018-11-05T05:43:35.335Z,12.33
2018-11-05T05:48:38.583Z,12.40
2018-11-05T05:53:41.813Z,13.20
2018-11-05T05:58:45.471Z,12.70
2018-11-05T06:03:48.645Z,12.83
2018-11-05T06:08:52.366Z,12.73
2018-11-05T06:13:55.822Z,12.80
2018-11-05T06:18:58.996Z,12.47
2018-11-05T06:24:03.284Z,14.50
2018-11-05T06:29:06.594Z,12.90
2018-11-05T06:34:10.710Z,15.43
2018-11-05T06:39:14.150Z,15.43
2018-11-05T06:44:17.573Z,16.63
2018-11-05T06:49:20.697Z,18.37
2018-11-05T06:54:24.111Z,21.83
2018-11-05T06:59:27.887Z,20.70
2018-11-05T07:04:31.088Z,19.67
2018-11-05T07:09:34.345Z,19.47
2018-11-05T07:14:37.515Z,19.47
2018-11-05T07:19:41.665Z,17.70
2018-11-05T07:24:45.323Z,17.87
2018-11-05T07:29:48.482Z,14.77
2018-11-05T07:34:51.747Z,17.93
2018-11-05T07:39:54.914Z,16.13
2018-11-05T07:44:58.103Z,18.07
2018-11-05T07:50:01.857Z,18.43
2018-11-05T07:55:06.102Z,17.70
2018-11-05T08:00:18.749Z,16.93
2018-11-05T08:05:24.481Z,16.30
2018-11-05T08:10:27.662Z,15.50
2018-11-05T08:15:31.199Z,15.80
2018-11-05T08:20:34.374Z,15.20
2018-11-05T08:25:37.610Z,13.07
2018-11-05T08:30:41.126Z,13.80
2018-11-05T08:35:45.565Z,14.70
2018-11-05T08:40:48.739Z,17.10
2018-11-05T08:45:52.858Z,17.93
2018-11-05T08:50:57.570Z,16.23
2018-11-05T08:56:02.091Z,17.00
2018-11-05T09:01:11.482Z,17.07
2018-11-05T09:06:15.538Z,16.60
2018-11-05T09:11:20.796Z,17.17
2018-11-05T09:16:24.238Z,17.40
2018-11-05T09:21:27.449Z,21.93
2018-11-05T09:26:30.661Z,18.13
2018-11-05T09:31:34.763Z,20.70
2018-11-05T09:36:37.970Z,20.00
2018-11-05T09:41:41.163Z,19.87
2018-11-05T09:46:44.616Z,19.50
2018-11-05T09:51:47.907Z,19.80
2018-11-05T09:56:51.117Z,19.93
2018-11-05T10:01:55.074Z,19.87
2018-11-05T10:06:58.347Z,18.60
2018-11-05T10:12:02.363Z,20.20
2018-11-05T10:17:07.790Z,19.40
2018-11-05T10:22:12.226Z,21.77
2018-11-05T10:27:16.343Z,19.60
2018-11-05T10:32:19.794Z,19.97
2018-11-05T10:37:22.986Z,21.33
2018-11-05T10:42:27.530Z,21.47
2018-11-05T10:47:30.787Z,20.57
2018-11-05T10:52:36.346Z,22.27
2018-11-05T10:57:40.967Z,20.40
2018-11-05T11:02:48.434Z,16.37
2018-11-05T11:07:53.551Z,22.57
2018-11-05T11:12:56.944Z,23.37
2018-11-05T11:18:00.132Z,22.87
2018-11-05T11:23:03.419Z,24.60
2018-11-05T11:28:07.752Z,23.73
2018-11-05T11:33:10.885Z,22.67
2018-11-05T11:38:14.109Z,22.17
2018-11-05T11:43:17.322Z,21.97
2018-11-05T11:48:21.095Z,21.97
2018-11-05T11:53:24.624Z,18.73
2018-11-05T11:58:27.778Z,19.47
2018-11-05T12:03:31.010Z,18.43
2018-11-05T12:08:34.562Z,19.33
2018-11-05T12:13:37.803Z,21.07
2018-11-05T12:18:41.312Z,18.53
2018-11-05T12:23:44.567Z,17.33
2018-11-05T12:28:48.646Z,16.97
2018-11-05T12:33:52.589Z,15.57
2018-11-05T12:38:55.929Z,15.37
2018-11-05T12:43:59.031Z,14.27
2018-11-05T12:49:02.217Z,14.73
2018-11-05T12:54:05.730Z,13.43
2018-11-05T12:59:09.671Z,11.97
2018-11-05T13:04:12.996Z,11.70
2018-11-05T13:09:17.150Z,12.93
2018-11-05T13:14:21.293Z,12.27
2018-11-05T13:19:24.534Z,11.60
2018-11-05T13:24:27.706Z,10.63
2018-11-05T13:29:32.039Z,9.77
2018-11-05T13:34:36.359Z,9.90
2018-11-05T13:39:39.550Z,9.90
2018-11-05T13:44:42.856Z,10.50
2018-11-05T13:49:46.260Z,10.87
2018-11-05T13:54:50.088Z,11.10
2018-11-05T13:59:53.559Z,10.37
2018-11-05T14:04:57.740Z,9.73
2018-11-05T14:10:01.843Z,10.70
2018-11-05T14:15:05.631Z,10.40
2018-11-05T14:20:10.269Z,9.83
2018-11-05T14:25:15.888Z,10.43
2018-11-05T14:30:19.192Z,10.53
2018-11-05T14:35:22.387Z,10.43
2018-11-05T14:40:25.624Z,10.50
2018-11-05T14:45:28.862Z,10.37
2018-11-05T14:50:32.211Z,10.87
2018-11-05T14:55:35.411Z,12.23
2018-11-05T15:00:38.643Z,12.33
2018-11-05T15:05:41.964Z,11.23
2018-11-05T15:10:45.174Z,12.53
2018-11-05T15:15:48.402Z,11.40
2018-11-05T15:20:53.218Z,10.73
2018-11-05T15:25:56.407Z,10.07
2018-11-05T15:31:23.999Z,10.00
2018-11-05T16:16:38.895Z,9.20
2018-11-05T16:21:46.617Z,9.17
2018-11-05T16:26:51.037Z,9.07
2018-11-05T16:31:54.299Z,9.63
2018-11-05T16:42:50.182Z,8.20
2018-11-05T16:47:54.314Z,8.87
2018-11-05T16:52:57.578Z,9.03
2018-11-05T16:58:00.876Z,7.87
2018-11-05T17:03:04.880Z,8.80
2018-11-05T17:08:07.972Z,7.30
2018-11-05T17:13:11.202Z,8.33
2018-11-05T17:18:14.374Z,8.83
2018-11-05T17:23:17.607Z,7.80
2018-11-05T17:28:20.771Z,7.70
2018-11-05T17:33:24.035Z,8.13
2018-11-05T17:38:27.991Z,8.17
2018-11-05T17:43:31.400Z,6.97
2018-11-05T17:48:34.692Z,8.00
2018-11-05T17:53:37.951Z,8.63
2018-11-05T17:58:44.751Z,7.50
2018-11-05T18:03:48.077Z,7.87
2018-11-05T18:08:53.620Z,9.83
2018-11-05T18:14:00.641Z,8.67
2018-11-05T18:19:04.249Z,10.67
2018-11-05T18:24:08.500Z,10.43
2018-11-05T18:29:11.673Z,9.77
2018-11-05T18:34:16.630Z,9.50
2018-11-05T18:39:21.318Z,10.27
2018-11-05T18:44:25.965Z,11.13
2018-11-05T18:49:29.384Z,11.17
2018-11-05T18:54:35.342Z,11.90
2018-11-05T18:59:40.446Z,11.40
2018-11-05T19:04:49.552Z,13.10
2018-11-05T19:10:09.254Z,11.00
2018-11-05T19:21:34.828Z,18.50
2018-11-05T19:26:49.636Z,18.37
2018-11-05T19:32:08.743Z,17.97
2018-11-05T19:37:12.889Z,19.07
2018-11-05T19:42:16.870Z,21.80
2018-11-05T19:47:23.713Z,21.83
2018-11-05T19:52:32.307Z,25.80
2018-11-05T19:57:44.403Z,18.97
2018-11-05T20:02:55.934Z,21.57
2018-11-05T20:08:01.006Z,20.40
2018-11-05T20:13:08.170Z,18.13
2018-11-05T20:18:12.096Z,15.77
2018-11-05T20:23:19.023Z,17.17
2018-11-05T20:34:38.307Z,15.83
2018-11-05T20:40:21.641Z,15.13
2018-11-05T20:45:25.743Z,15.47
2018-11-05T20:50:39.924Z,14.87
2018-11-05T20:56:18.056Z,16.10
2018-11-05T21:01:28.825Z,17.13
2018-11-05T21:06:32.131Z,17.27
2018-11-05T21:11:35.334Z,18.10
2018-11-05T21:16:38.666Z,16.97
2018-11-05T21:21:42.619Z,16.70
2018-11-05T21:26:45.965Z,15.77
2018-11-05T21:31:49.123Z,14.67
2018-11-05T21:36:52.331Z,15.27
2018-11-05T21:41:56.084Z,13.37
2018-11-05T21:46:59.551Z,13.40
2018-11-05T21:52:02.833Z,13.80
2018-11-05T21:57:06.041Z,15.07
2018-11-05T22:02:09.214Z,14.40
2018-11-05T22:07:12.477Z,14.97
2018-11-05T22:12:17.493Z,15.03
2018-11-05T22:17:20.698Z,13.73
2018-11-05T22:22:24.609Z,14.53
2018-11-05T22:27:30.483Z,16.20
2018-11-05T22:32:33.862Z,15.73
2018-11-05T22:37:37.390Z,15.40
2018-11-05T22:42:40.755Z,16.47
2018-11-05T22:47:44.951Z,15.60
2018-11-05T22:52:48.995Z,15.30
2018-11-05T22:57:52.371Z,15.53
2018-11-05T23:03:01.150Z,16.93
2018-11-05T23:08:04.953Z,15.83
2018-11-05T23:13:08.142Z,14.70
2018-11-05T23:18:11.440Z,15.07
2018-11-05T23:23:17.274Z,16.23
2018-11-05T23:28:20.435Z,15.83
2018-11-05T23:33:23.765Z,16.83
2018-11-05T23:38:26.827Z,16.53
2018-11-05T23:43:30.218Z,18.93
2018-11-05T23:48:33.489Z,16.40
2018-11-05T23:53:36.737Z,17.73
2018-11-05T23:58:39.915Z,17.83
